Hauptseite
METAR-TAF:

METAR-TAF

Flughäfen :

Flughafen Brüssel-Charleroi

Charleroi, Belgien

Breite: 50-28N, Länge: 004-27E, Höhe: 187 m

Beobachtung

Neuester Wetterbericht von vor 44 Minuten, um 12:50 UTC
Wind 10 kt aus West, variierte zwischen Südwest und West/Nordwest
Temperatur 25°C
Luftfeuchtigkeit 41%
Luftdruck 1017 hPa
Sichtweite 10 km oder mehr
Aufgelockert bewölkt in der Höhe von 3500 ft

METAR: EBCI 171250Z 26010KT 220V300 9999 SCT035 25/11 Q1017 NOSIG

Zeit: 15:34 (13:34 UTC)

Prognose

Neuester Wetterbericht von vor 2 Stunden und 34 Minuten, um 11:00 UTC
Gültige Prognose vom 17 um 12 UTC bis 18 um 18 UTC
Wind 7 kt aus West
Sichtweite 10 km oder mehr
keine Wolken unter 1500 m und keine Kumulonimbus oder Gewitterwolken

TAF: EBCI 171100Z 1712/1818 28007KT CAVOK

Wetterbeobachtungen und Prognosen von mehr als 4000 Flughäfen (METAR und TAF Bericht).

Die verfügbaren Stationen werden durch gelbe und rote Markierungen auf der Karte dargestellt.

Führen Sie die Maus auf sie, um den Namen der Station zu sehen.

Darauf klicken, um die Beobachtung von Wetterbeobachtungen und Prognosen zu sehen.

Um die Karte zu ändern : klicken Sie auf den grünen Tasten mit einem schwarzen Kreuz Zum Vergrößern, auf den grünen Button mit einem Gedankenstrich zu verkleinern, oder auf die grünen Pfeile für benachbarte Karten.


METAR-TAF: